createdAt,value
2018-12-04T00:07:11.112Z,8.20
2018-12-04T00:11:47.719Z,8.40
2018-12-04T00:14:00.240Z,8.40
2018-12-04T00:16:18.978Z,8.40
2018-12-04T00:21:01.650Z,8.40
2018-12-04T00:23:14.691Z,8.50
2018-12-04T00:25:25.214Z,8.50
2018-12-04T00:27:31.735Z,8.50
2018-12-04T00:29:36.321Z,8.50
2018-12-04T00:31:47.600Z,8.50
2018-12-04T00:33:52.594Z,8.50
2018-12-04T00:35:59.495Z,8.60
2018-12-04T00:38:11.085Z,8.60
2018-12-04T00:40:20.293Z,8.50
2018-12-04T00:47:25.620Z,8.60
2018-12-04T00:49:43.589Z,8.60
2018-12-04T00:52:28.087Z,8.60
2018-12-04T00:54:49.471Z,8.60
2018-12-04T01:01:39.208Z,8.60
2018-12-04T01:04:19.819Z,8.50
2018-12-04T01:11:21.203Z,8.40
2018-12-04T01:18:47.712Z,8.30
2018-12-04T01:20:58.124Z,8.20
2018-12-04T01:23:06.074Z,8.10
2018-12-04T01:25:15.237Z,8.10
2018-12-04T01:27:27.388Z,8.00
2018-12-04T01:29:34.652Z,8.00
2018-12-04T01:31:42.370Z,8.00
2018-12-04T01:33:45.634Z,8.00
2018-12-04T01:35:48.911Z,7.90
2018-12-04T01:37:57.165Z,7.90
2018-12-04T01:40:04.268Z,7.90
2018-12-04T01:42:14.872Z,7.90
2018-12-04T01:44:24.140Z,7.90
2018-12-04T01:46:31.132Z,7.90
2018-12-04T01:48:41.501Z,7.90
2018-12-04T01:50:48.345Z,8.00
2018-12-04T01:52:56.072Z,8.00
2018-12-04T01:57:10.819Z,8.10
2018-12-04T01:59:28.521Z,8.10
2018-12-04T02:01:40.579Z,8.10
2018-12-04T02:03:52.382Z,8.20
2018-12-04T02:06:10.255Z,8.20
2018-12-04T02:08:29.183Z,8.30
2018-12-04T02:10:36.990Z,8.40
2018-12-04T02:12:46.594Z,8.40
2018-12-04T02:14:57.542Z,8.40
2018-12-04T02:17:07.711Z,8.40
2018-12-04T02:19:46.040Z,8.50
2018-12-04T02:32:34.737Z,8.50
2018-12-04T02:34:45.136Z,8.60
2018-12-04T02:36:49.959Z,8.60
2018-12-04T02:39:03.832Z,8.60
2018-12-04T02:41:21.560Z,8.60
2018-12-04T02:43:30.815Z,8.60
2018-12-04T02:45:50.459Z,8.60
2018-12-04T02:53:06.610Z,8.60
2018-12-04T02:55:27.779Z,8.60
2018-12-04T03:01:57.288Z,8.60
2018-12-04T03:04:05.747Z,8.60
2018-12-04T03:06:26.045Z,8.60
2018-12-04T03:08:35.369Z,8.60
2018-12-04T03:10:42.477Z,8.50
2018-12-04T03:12:57.213Z,8.60
2018-12-04T03:15:11.817Z,8.50
2018-12-04T03:17:15.039Z,8.60
2018-12-04T03:19:18.191Z,8.60
2018-12-04T03:21:22.428Z,8.50
2018-12-04T03:23:25.646Z,8.60
2018-12-04T03:25:28.868Z,8.60
2018-12-04T03:27:32.020Z,8.50
2018-12-04T03:29:35.205Z,8.50
2018-12-04T03:31:38.402Z,8.50
2018-12-04T03:33:41.643Z,8.60
2018-12-04T03:35:44.797Z,8.60
2018-12-04T03:37:48.018Z,8.50
2018-12-04T03:39:51.160Z,8.50
2018-12-04T03:41:54.400Z,8.50
2018-12-04T03:43:57.614Z,8.50
2018-12-04T03:46:00.755Z,8.50
2018-12-04T03:48:04.074Z,8.50
2018-12-04T03:50:07.449Z,8.50
2018-12-04T03:52:10.682Z,8.50
2018-12-04T03:54:14.007Z,8.50
2018-12-04T03:56:17.161Z,8.60
2018-12-04T03:58:20.383Z,8.60
2018-12-04T04:00:23.644Z,8.50
2018-12-04T04:02:26.915Z,8.50
2018-12-04T04:04:30.071Z,8.50
2018-12-04T04:06:33.861Z,8.50
2018-12-04T04:08:37.091Z,8.40
2018-12-04T04:10:40.379Z,8.30
2018-12-04T04:12:44.880Z,8.20
2018-12-04T04:14:49.272Z,8.10
2018-12-04T04:16:54.622Z,8.00
2018-12-04T04:18:57.865Z,7.90
2018-12-04T04:21:01.010Z,7.70
2018-12-04T04:23:04.160Z,7.60
2018-12-04T04:25:07.474Z,7.50
2018-12-04T04:27:10.684Z,7.40
2018-12-04T04:29:13.910Z,7.30
2018-12-04T04:31:17.098Z,7.20
2018-12-04T04:33:20.298Z,7.10
2018-12-04T04:35:23.491Z,7.00
2018-12-04T04:37:26.599Z,6.90
2018-12-04T04:39:29.794Z,6.90
2018-12-04T04:41:32.908Z,6.80
2018-12-04T04:43:36.013Z,6.70
2018-12-04T04:45:39.124Z,6.70
2018-12-04T04:47:42.338Z,6.60
2018-12-04T04:49:45.530Z,6.50
2018-12-04T04:51:48.731Z,6.50
2018-12-04T04:53:51.858Z,6.40
2018-12-04T04:55:55.067Z,6.30
2018-12-04T04:57:58.173Z,6.30
2018-12-04T05:00:01.337Z,6.20
2018-12-04T05:02:04.615Z,6.20
2018-12-04T05:04:07.782Z,6.10
2018-12-04T05:06:10.882Z,6.10
2018-12-04T05:08:14.128Z,6.00
2018-12-04T05:10:17.271Z,6.00
2018-12-04T05:12:20.428Z,5.90
2018-12-04T05:14:23.570Z,5.90
2018-12-04T05:16:26.717Z,5.90
2018-12-04T05:18:30.007Z,5.90
2018-12-04T05:20:33.238Z,5.80
2018-12-04T05:25:14.739Z,5.70
2018-12-04T05:27:24.645Z,5.70
2018-12-04T05:29:27.946Z,5.70
2018-12-04T05:31:38.039Z,5.60
2018-12-04T05:33:46.686Z,5.60
2018-12-04T05:35:52.627Z,5.50
2018-12-04T06:06:37.467Z,5.20
2018-12-04T06:08:47.170Z,5.10
2018-12-04T06:10:50.429Z,5.10
2018-12-04T06:12:53.546Z,5.10
2018-12-04T06:14:56.642Z,5.10
2018-12-04T06:16:59.882Z,5.10
2018-12-04T06:19:03.058Z,5.10
2018-12-04T06:21:06.150Z,5.20
2018-12-04T06:23:09.307Z,5.20
2018-12-04T06:25:15.357Z,5.30
2018-12-04T06:27:28.543Z,5.40
2018-12-04T06:29:54.083Z,5.50
2018-12-04T06:47:32.216Z,5.70
2018-12-04T06:52:08.954Z,5.70
2018-12-04T07:07:22.920Z,5.50
2018-12-04T07:38:36.448Z,4.80
2018-12-04T07:40:39.712Z,4.80
2018-12-04T07:42:42.867Z,4.80
2018-12-04T07:44:46.034Z,4.80
2018-12-04T07:46:49.164Z,4.80
2018-12-04T07:48:52.317Z,4.80
2018-12-04T07:50:55.441Z,4.90
2018-12-04T07:52:58.622Z,4.90
2018-12-04T07:55:01.722Z,4.90
2018-12-04T07:57:04.982Z,4.90
2018-12-04T07:59:08.171Z,4.90
2018-12-04T08:01:11.399Z,4.90
2018-12-04T08:03:14.484Z,4.90
2018-12-04T08:05:17.727Z,4.90
2018-12-04T08:07:20.841Z,4.90
2018-12-04T08:09:23.938Z,4.90
2018-12-04T08:11:27.097Z,4.90
2018-12-04T08:13:30.191Z,5.00
2018-12-04T08:15:33.363Z,5.00
2018-12-04T08:17:36.536Z,5.00
2018-12-04T08:19:39.847Z,5.00
2018-12-04T08:21:42.954Z,5.10
2018-12-04T08:23:46.055Z,5.20
2018-12-04T08:25:49.222Z,5.20
2018-12-04T08:27:52.329Z,5.30
2018-12-04T08:29:55.495Z,5.30
2018-12-04T08:31:58.654Z,5.40
2018-12-04T08:34:01.761Z,5.40
2018-12-04T08:36:05.008Z,5.50
2018-12-04T08:38:08.102Z,5.50
2018-12-04T08:40:11.263Z,5.60
2018-12-04T08:42:14.518Z,5.60
2018-12-04T08:44:17.613Z,5.70
2018-12-04T08:46:20.719Z,5.70
2018-12-04T08:48:23.810Z,5.80
2018-12-04T08:50:26.995Z,5.80
2018-12-04T08:52:30.156Z,5.80
2018-12-04T08:54:33.234Z,5.90
2018-12-04T08:56:36.422Z,6.00
2018-12-04T08:58:39.594Z,6.00
2018-12-04T09:00:42.694Z,6.10
2018-12-04T09:02:45.806Z,6.10
2018-12-04T09:04:48.978Z,6.10
2018-12-04T09:06:52.098Z,6.10
2018-12-04T09:08:55.330Z,6.20
2018-12-04T09:10:58.979Z,6.20
2018-12-04T09:15:20.592Z,6.30
2018-12-04T09:17:29.256Z,6.30
2018-12-04T09:19:34.459Z,6.40
2018-12-04T09:21:40.398Z,6.40
2018-12-04T09:23:48.640Z,6.50
2018-12-04T09:25:53.184Z,6.50
2018-12-04T09:27:59.260Z,6.60
2018-12-04T09:30:07.840Z,6.60
2018-12-04T09:32:20.087Z,6.70
2018-12-04T09:34:29.777Z,6.70
2018-12-04T09:36:30.991Z,6.80
2018-12-04T09:38:34.136Z,6.80
2018-12-04T09:40:37.275Z,6.80
2018-12-04T09:42:40.407Z,6.90
2018-12-04T09:44:43.548Z,6.90
2018-12-04T09:46:46.682Z,7.00
2018-12-04T09:48:49.818Z,7.00
2018-12-04T09:50:52.950Z,7.00
2018-12-04T09:52:56.093Z,7.10
2018-12-04T09:54:59.317Z,7.10
2018-12-04T09:57:02.462Z,7.20
2018-12-04T09:59:05.662Z,7.20
2018-12-04T10:01:08.830Z,7.20
2018-12-04T10:03:11.971Z,7.30
2018-12-04T10:05:15.186Z,7.30
2018-12-04T10:07:18.322Z,7.30
2018-12-04T10:09:21.462Z,7.40
2018-12-04T10:11:24.615Z,7.40
2018-12-04T10:13:27.778Z,7.40
2018-12-04T10:15:31.197Z,7.40
2018-12-04T10:17:34.402Z,7.50
2018-12-04T10:19:37.538Z,7.50
2018-12-04T10:21:40.680Z,7.50
2018-12-04T10:23:43.823Z,7.60
2018-12-04T10:25:49.635Z,7.60
2018-12-04T10:27:52.803Z,7.60
2018-12-04T10:29:55.942Z,7.60
2018-12-04T10:31:59.167Z,7.70
2018-12-04T10:34:02.314Z,7.70
2018-12-04T10:36:05.537Z,7.70
2018-12-04T10:38:08.679Z,7.70
2018-12-04T10:40:11.911Z,7.70
2018-12-04T10:42:15.054Z,7.80
2018-12-04T10:44:18.210Z,7.80
2018-12-04T10:46:21.348Z,7.70
2018-12-04T10:48:24.509Z,7.80
2018-12-04T10:50:27.725Z,7.80
2018-12-04T10:52:31.059Z,7.80
2018-12-04T10:54:34.203Z,7.80
2018-12-04T10:56:37.331Z,7.80
2018-12-04T10:58:40.457Z,7.80
2018-12-04T11:00:48.962Z,7.80
2018-12-04T11:02:54.070Z,7.90
2018-12-04T11:04:57.219Z,7.90
2018-12-04T11:07:00.366Z,7.90
2018-12-04T11:09:05.757Z,7.90
2018-12-04T11:11:08.930Z,7.90
2018-12-04T11:13:12.075Z,7.90
2018-12-04T11:15:15.325Z,7.90
2018-12-04T11:17:18.514Z,7.90
2018-12-04T11:19:21.627Z,8.00
2018-12-04T11:21:24.803Z,8.00
2018-12-04T11:23:27.963Z,8.00
2018-12-04T11:25:31.063Z,8.00
2018-12-04T11:27:34.167Z,8.00
2018-12-04T11:29:37.291Z,8.00
2018-12-04T11:31:40.494Z,8.10
2018-12-04T11:33:43.669Z,8.10
2018-12-04T11:35:46.946Z,8.10
2018-12-04T11:37:50.054Z,8.20
2018-12-04T11:39:53.797Z,8.20
2018-12-04T11:41:56.958Z,8.20
2018-12-04T11:44:00.055Z,8.20
2018-12-04T11:46:03.301Z,8.20
2018-12-04T11:48:06.479Z,8.20
2018-12-04T11:50:09.742Z,8.20
2018-12-04T11:52:12.842Z,8.20
2018-12-04T11:54:16.075Z,8.20
2018-12-04T11:56:19.258Z,8.30
2018-12-04T11:58:22.431Z,8.30
2018-12-04T12:00:31.066Z,8.40
2018-12-04T12:02:34.163Z,8.40
2018-12-04T12:04:37.351Z,8.40
2018-12-04T12:06:40.525Z,8.40
2018-12-04T12:08:43.631Z,8.40
2018-12-04T12:10:46.855Z,8.40
2018-12-04T12:12:50.011Z,8.40
2018-12-04T12:14:53.152Z,8.40
2018-12-04T12:16:56.295Z,8.40
2018-12-04T12:18:59.443Z,8.40
2018-12-04T12:21:02.595Z,8.40
2018-12-04T12:23:05.733Z,8.40
2018-12-04T12:25:09.115Z,8.40
2018-12-04T12:27:12.352Z,8.40
2018-12-04T12:29:15.482Z,8.40
2018-12-04T12:31:18.627Z,8.40
2018-12-04T12:33:21.770Z,8.50
2018-12-04T12:35:24.906Z,8.50
2018-12-04T12:37:28.062Z,8.50
2018-12-04T12:39:31.308Z,8.40
2018-12-04T12:41:34.449Z,8.40
2018-12-04T12:43:37.682Z,8.40
2018-12-04T12:45:40.918Z,8.40
2018-12-04T12:47:44.058Z,8.40
2018-12-04T12:49:47.215Z,8.40
2018-12-04T12:51:50.353Z,8.40
2018-12-04T12:53:53.499Z,8.40
2018-12-04T12:55:56.633Z,8.40
2018-12-04T12:57:59.773Z,8.40
2018-12-04T13:00:03.206Z,8.40
2018-12-04T13:02:06.434Z,8.40
2018-12-04T13:04:09.734Z,8.40
2018-12-04T13:06:13.043Z,8.40
2018-12-04T13:08:16.192Z,8.40
2018-12-04T13:10:19.341Z,8.40
2018-12-04T13:12:22.570Z,8.40
2018-12-04T13:14:25.791Z,8.40
2018-12-04T13:16:30.084Z,8.40
2018-12-04T13:18:33.346Z,8.30
2018-12-04T13:20:36.570Z,8.30
2018-12-04T13:22:39.734Z,8.30
2018-12-04T13:24:43.186Z,8.30
2018-12-04T13:26:46.350Z,8.30
2018-12-04T13:28:49.556Z,8.30
2018-12-04T13:30:52.778Z,8.30
2018-12-04T13:32:55.928Z,8.20
2018-12-04T13:34:59.142Z,8.20
2018-12-04T13:37:02.299Z,8.30
2018-12-04T13:39:08.805Z,8.30
2018-12-04T13:41:11.960Z,8.20
2018-12-04T13:43:15.205Z,8.20
2018-12-04T13:45:18.544Z,8.20
2018-12-04T13:47:21.762Z,8.10
2018-12-04T13:49:24.968Z,8.10
2018-12-04T13:51:28.106Z,8.10
2018-12-04T13:53:31.262Z,8.10
2018-12-04T13:55:34.433Z,8.10
2018-12-04T13:57:37.646Z,8.10
2018-12-04T13:59:40.800Z,8.00
2018-12-04T14:01:44.110Z,8.00
2018-12-04T14:03:47.316Z,7.90
2018-12-04T14:05:50.458Z,7.90
2018-12-04T14:07:53.682Z,7.90
2018-12-04T14:09:56.893Z,7.90
2018-12-04T14:12:00.101Z,7.80
2018-12-04T14:14:03.401Z,7.80
2018-12-04T14:16:06.672Z,7.70
2018-12-04T14:18:09.980Z,7.70
2018-12-04T14:20:13.178Z,7.70
2018-12-04T14:22:16.379Z,7.70
2018-12-04T14:24:19.672Z,7.60
2018-12-04T14:26:22.855Z,7.60
2018-12-04T14:28:26.178Z,7.60
2018-12-04T14:30:29.423Z,7.50
2018-12-04T14:32:32.615Z,7.50
2018-12-04T14:34:35.782Z,7.50
2018-12-04T14:36:38.981Z,7.50
2018-12-04T14:38:42.224Z,7.40
2018-12-04T14:40:45.462Z,7.40
2018-12-04T14:42:50.696Z,7.30
2018-12-04T14:44:53.786Z,7.30
2018-12-04T14:46:56.959Z,7.20
2018-12-04T14:49:00.144Z,7.10
2018-12-04T14:51:03.366Z,7.00
2018-12-04T14:53:06.547Z,7.00
2018-12-04T14:55:09.643Z,6.90
2018-12-04T14:57:12.761Z,6.80
2018-12-04T14:59:15.978Z,6.80
2018-12-04T15:01:19.299Z,6.80
2018-12-04T15:03:22.415Z,6.70
2018-12-04T15:05:25.669Z,6.60
2018-12-04T15:07:28.932Z,6.50
2018-12-04T15:09:32.254Z,6.50
2018-12-04T15:11:35.567Z,6.40
2018-12-04T15:13:38.766Z,6.30
2018-12-04T15:15:41.919Z,6.30
2018-12-04T15:17:45.258Z,6.20
2018-12-04T15:19:48.382Z,6.20
2018-12-04T15:21:51.600Z,6.10
2018-12-04T15:23:54.873Z,6.00
2018-12-04T15:25:58.071Z,6.00
2018-12-04T15:28:01.463Z,5.90
2018-12-04T15:30:05.307Z,5.90
2018-12-04T15:32:08.534Z,5.80
2018-12-04T15:34:11.743Z,5.80
2018-12-04T15:36:14.979Z,5.70
2018-12-04T15:38:18.248Z,5.70
2018-12-04T15:40:21.453Z,5.60
2018-12-04T15:42:24.705Z,5.60
2018-12-04T15:44:28.079Z,5.50
2018-12-04T15:46:31.274Z,5.40
2018-12-04T15:48:34.450Z,5.30
2018-12-04T15:50:37.594Z,5.20
2018-12-04T15:52:40.743Z,5.20
2018-12-04T15:54:43.994Z,5.10
2018-12-04T15:56:47.193Z,5.10
2018-12-04T15:58:50.344Z,5.00
2018-12-04T16:00:53.590Z,4.90
2018-12-04T16:02:56.738Z,4.90
2018-12-04T16:04:59.886Z,4.80
2018-12-04T16:07:03.146Z,4.80
2018-12-04T16:09:07.618Z,4.70
2018-12-04T16:11:10.794Z,4.70
2018-12-04T16:13:13.932Z,4.80
2018-12-04T16:15:17.039Z,4.80
2018-12-04T16:17:20.147Z,4.80
2018-12-04T16:19:23.282Z,4.80
2018-12-04T16:21:26.402Z,4.90
2018-12-04T16:23:29.590Z,4.90
2018-12-04T16:25:32.811Z,5.00
2018-12-04T16:27:35.939Z,5.10
2018-12-04T16:29:39.147Z,5.10
2018-12-04T16:31:42.295Z,5.20
2018-12-04T16:33:45.381Z,5.20
2018-12-04T16:35:48.495Z,5.20
2018-12-04T16:37:51.601Z,5.20
2018-12-04T16:39:54.774Z,5.20
2018-12-04T16:41:57.962Z,5.20
2018-12-04T16:44:01.163Z,5.10
2018-12-04T16:46:04.417Z,5.00
2018-12-04T16:48:07.595Z,4.90
2018-12-04T16:50:10.836Z,4.90
2018-12-04T16:52:14.048Z,4.80
2018-12-04T16:54:17.235Z,4.80
2018-12-04T16:56:23.023Z,4.80
2018-12-04T16:58:26.130Z,4.80
2018-12-04T17:00:29.302Z,4.70
2018-12-04T17:02:32.466Z,4.60
2018-12-04T17:04:35.717Z,4.50
2018-12-04T17:06:39.100Z,4.50
2018-12-04T17:08:42.267Z,4.40
2018-12-04T17:10:45.414Z,4.30
2018-12-04T17:12:48.650Z,4.20
2018-12-04T17:14:51.807Z,4.10
2018-12-04T17:16:54.950Z,4.10
2018-12-04T17:18:58.177Z,4.00
2018-12-04T17:21:01.418Z,3.90
2018-12-04T17:23:04.574Z,3.90
2018-12-04T17:25:07.797Z,3.90
2018-12-04T17:27:10.942Z,3.90
2018-12-04T17:29:14.166Z,3.80
2018-12-04T17:31:17.403Z,3.80
2018-12-04T17:33:20.815Z,3.80
2018-12-04T17:35:24.122Z,3.80
2018-12-04T17:37:27.369Z,3.70
2018-12-04T17:39:30.586Z,3.70
2018-12-04T17:41:33.905Z,3.70
2018-12-04T17:43:37.141Z,3.60
2018-12-04T17:45:40.281Z,3.50
2018-12-04T17:47:43.428Z,3.50
2018-12-04T17:49:46.558Z,3.40
2018-12-04T17:51:49.771Z,3.40
2018-12-04T17:53:52.914Z,3.40
2018-12-04T17:55:56.043Z,3.30
2018-12-04T17:57:59.194Z,3.30
2018-12-04T18:00:02.402Z,3.20
2018-12-04T18:02:05.722Z,3.20
2018-12-04T18:04:08.954Z,3.10
2018-12-04T18:06:12.086Z,3.10
2018-12-04T18:08:15.260Z,3.10
2018-12-04T18:10:18.439Z,3.10
2018-12-04T18:12:21.623Z,3.10
2018-12-04T18:14:24.726Z,3.00
2018-12-04T18:16:27.825Z,3.00
2018-12-04T18:18:30.998Z,3.00
2018-12-04T18:20:34.093Z,3.00
2018-12-04T18:22:37.868Z,2.90
2018-12-04T18:24:41.031Z,2.90
2018-12-04T18:26:44.115Z,2.90
2018-12-04T18:28:47.214Z,2.90
2018-12-04T18:30:50.518Z,2.90
2018-12-04T18:32:53.654Z,2.80
2018-12-04T18:34:56.743Z,2.80
2018-12-04T18:36:59.913Z,2.70
2018-12-04T18:39:05.155Z,2.70
2018-12-04T18:41:08.436Z,2.70
2018-12-04T18:43:11.538Z,2.60
2018-12-04T18:45:14.643Z,2.60
2018-12-04T18:47:17.824Z,2.60
2018-12-04T18:49:21.002Z,2.50
2018-12-04T18:51:24.107Z,2.50
2018-12-04T18:53:27.198Z,2.50
2018-12-04T18:55:30.374Z,2.40
2018-12-04T18:57:33.555Z,2.40
2018-12-04T18:59:36.654Z,2.40
2018-12-04T19:01:39.750Z,2.30
2018-12-04T19:03:42.954Z,2.30
2018-12-04T19:05:46.198Z,2.30
2018-12-04T19:07:49.445Z,2.30
2018-12-04T19:09:52.802Z,2.30
2018-12-04T19:11:55.917Z,2.20
2018-12-04T19:13:59.151Z,2.20
2018-12-04T19:16:02.273Z,2.20
2018-12-04T19:18:05.499Z,2.20
2018-12-04T19:20:09.098Z,2.10
2018-12-04T19:22:12.274Z,2.10
2018-12-04T19:24:15.402Z,2.00
2018-12-04T19:26:18.634Z,2.00
2018-12-04T19:28:21.742Z,2.00
2018-12-04T19:30:25.018Z,2.00
2018-12-04T19:32:28.198Z,2.00
2018-12-04T19:34:31.395Z,1.90
2018-12-04T19:36:34.513Z,1.90
2018-12-04T19:38:37.626Z,1.80
2018-12-04T19:40:40.977Z,1.80
2018-12-04T19:42:44.663Z,1.80
2018-12-04T19:44:47.858Z,1.80
2018-12-04T19:46:50.976Z,1.70
2018-12-04T19:48:54.150Z,1.70
2018-12-04T19:50:57.362Z,1.60
2018-12-04T19:53:00.482Z,1.60
2018-12-04T19:55:03.810Z,1.60
2018-12-04T19:57:07.023Z,1.60
2018-12-04T19:59:10.214Z,1.50
2018-12-04T20:01:13.390Z,1.50
2018-12-04T20:03:16.503Z,1.50
2018-12-04T20:05:19.616Z,1.50
2018-12-04T20:07:22.798Z,1.50
2018-12-04T20:09:25.932Z,1.50
2018-12-04T20:11:29.115Z,1.50
2018-12-04T20:13:32.254Z,1.50
2018-12-04T20:15:35.508Z,1.50
2018-12-04T20:17:38.638Z,1.50
2018-12-04T20:19:41.879Z,1.50
2018-12-04T20:21:45.023Z,1.50
2018-12-04T20:23:48.220Z,1.50
2018-12-04T20:25:51.362Z,1.50
2018-12-04T20:27:54.586Z,1.50
2018-12-04T20:29:57.779Z,1.50
2018-12-04T20:32:00.950Z,1.50
2018-12-04T20:34:04.191Z,1.50
2018-12-04T20:36:07.432Z,1.50
2018-12-04T20:38:10.571Z,1.50
2018-12-04T20:40:13.729Z,1.50
2018-12-04T20:42:23.194Z,1.60
2018-12-04T20:47:09.233Z,1.60
2018-12-04T20:49:12.622Z,1.70
2018-12-04T20:51:18.192Z,1.70
2018-12-04T20:53:21.349Z,1.70
2018-12-04T20:55:24.527Z,1.80
2018-12-04T20:57:28.723Z,1.80
2018-12-04T20:59:51.513Z,1.80
2018-12-04T21:01:57.039Z,1.80
2018-12-04T21:04:04.256Z,1.90
2018-12-04T21:06:14.806Z,1.90
2018-12-04T21:08:48.316Z,2.00
2018-12-04T21:11:09.398Z,2.00
2018-12-04T21:13:23.421Z,2.00
2018-12-04T21:15:33.719Z,2.00
2018-12-04T21:17:45.952Z,2.10
2018-12-04T21:19:59.144Z,2.10
2018-12-04T21:22:24.876Z,2.10
2018-12-04T21:26:02.254Z,2.10
2018-12-04T21:28:27.655Z,2.20
2018-12-04T21:30:49.215Z,2.10
2018-12-04T21:33:04.190Z,2.10
2018-12-04T21:35:17.658Z,2.10
2018-12-04T21:37:28.404Z,2.00
2018-12-04T21:39:36.069Z,2.00
2018-12-04T21:41:45.607Z,2.00
2018-12-04T21:43:54.239Z,1.90
2018-12-04T21:48:17.411Z,1.80
2018-12-04T21:50:23.568Z,1.80
2018-12-04T21:52:27.087Z,1.70
2018-12-04T21:54:35.047Z,1.70
2018-12-04T21:56:59.557Z,1.70
2018-12-04T21:59:17.611Z,1.60
2018-12-04T22:01:24.098Z,1.60
2018-12-04T22:08:35.043Z,1.50
2018-12-04T22:10:52.808Z,1.50
2018-12-04T22:13:16.694Z,1.40
2018-12-04T22:15:38.985Z,1.40
2018-12-04T22:19:50.612Z,1.30
2018-12-04T22:22:07.467Z,1.30
2018-12-04T22:24:18.111Z,1.30
2018-12-04T22:26:24.274Z,1.30
2018-12-04T22:28:29.802Z,1.30
2018-12-04T22:40:37.587Z,1.20
2018-12-04T22:42:47.141Z,1.10
2018-12-04T22:45:01.071Z,1.10
2018-12-04T22:47:05.637Z,1.10
2018-12-04T22:49:16.278Z,1.00
2018-12-04T22:51:25.653Z,1.00
2018-12-04T22:53:32.054Z,0.90
2018-12-04T22:55:46.716Z,0.90
2018-12-04T22:57:57.671Z,0.90
2018-12-04T23:00:10.780Z,0.90
2018-12-04T23:02:21.562Z,0.80
2018-12-04T23:07:03.787Z,0.80
2018-12-04T23:09:27.605Z,0.70
2018-12-04T23:14:27.150Z,0.70
2018-12-04T23:16:48.993Z,0.70
2018-12-04T23:19:15.371Z,0.70
2018-12-04T23:21:28.638Z,0.60
2018-12-04T23:26:06.215Z,0.60
2018-12-04T23:28:20.752Z,0.60
2018-12-04T23:32:53.088Z,0.60
2018-12-04T23:35:10.110Z,0.50
2018-12-04T23:37:26.219Z,0.50
2018-12-04T23:39:35.451Z,0.50
2018-12-04T23:41:46.115Z,0.50
2018-12-04T23:43:53.628Z,0.50
2018-12-04T23:46:14.333Z,0.60
2018-12-04T23:48:21.427Z,0.60
2018-12-04T23:50:33.728Z,0.70
2018-12-04T23:52:42.600Z,0.80
2018-12-04T23:54:51.617Z,0.90
2018-12-04T23:57:07.165Z,1.00
2018-12-04T23:59:14.591Z,1.10
